Aktualne dane pomiarowe

Uwaga, wersja testowa! Automatyczne pobieranie danych za pomocą narzędzi lub skryptów to umożliwiających jest zabronione.

Dane meteo z obszaru Polski uzyskane na podstawie depesz SYNOP pobieranych co godzinę z NWS. Najedź myszką na symbol przedstawiony w tabeli, aby uzyskać informacje co do jego znaczenia. Prosimy pamiętać, że to testowa wersja strony, która jeszcze nie jest ukończona. Stworzono również jest krótki FAQ dotyczący korzystania z tej podstrony Anomalie temperatury w chwili obecnej odniesione są do okresu referencyjnego 1951-2016. Okres ten będzie później zmieniony na 1981-2010. Kliknij ikonę aby pobrać plik CSV. Kliknij ikonę aby wygenerować mapę synoptyczną dla danego terminu.

Wybierz Datę:    

        

Koło (12345)

Dane terminowe dla wybranej stacji. Kliknij datę, aby otrzymać dane z tego terminu dla wszystkich stacji.

TemperaturaZachmurzenieWiatrCiśnienieOpadyPogoda
 Data t td wb tx tn tg rh  Nt Nl Cl Cm Ch ws wd g1 g2 wx mslp ppp ch 24h 12h t ww ww w1 w2  
2019-08-08 23:00:00 15.8 13.1 14.0--- 8435.0--1wx--11012.2 998.2 1.6---------
2019-08-08 22:00:00 17.8 13.1 14.7--- 7435.0--1wx--11012.3 998.4 2.0---------
2019-08-08 21:00:00 19.0 14.0 15.7--- 7335.0--2wx--21010.7 996.9 0.6---------
2019-08-08 20:00:00 19.1 14.4 16.0--- 7427.0--1wx---1010.4 996.6 0.3---------
2019-08-08 19:00:00 20.5 14.4 16.5--- 6835.0--1wx--11010.1 996.4 0.0---------
2019-08-08 18:00:00 23.0 13.7 17.1 25.3 18.9- 5635.0--1wx--11009.9 996.3 -0.3- 0.212------
2019-08-08 17:00:00 24.2 14.0 17.8--- 5335.0--2wx--21009.9 996.3 -0.4---------
2019-08-08 16:00:00 24.7 13.9 17.9--- 5135.0--3wx---1009.9 996.4 -0.1---------
2019-08-08 15:00:00 23.4 13.3 17.1--- 5335.0--4wx--41010.2 996.6 -0.3---------
2019-08-08 14:00:00 23.7 13.0 17.1--- 5135.0--3wx--31010.3 996.7 -0.1---------
2019-08-08 13:00:00 25.3 13.8 18.1--- 4935.0--4wx--41010.0 996.5 0.1---wx-----
2019-08-08 12:00:00 22.8 13.3 16.8--- 5535.0--4wx-1041010.5 996.9 0.7- 0.16------
2019-08-08 11:00:00 24.1 13.6 17.5--- 5235.0--5wx--51010.4 996.8 1.2---------
2019-08-08 10:00:00 22.4 13.5 16.8--- 5735.0--5wx--51010.0 996.4 1.4---------
2019-08-08 09:00:00 22.0 14.4 17.1--- 6235.0--5wx-1051009.9 996.2 1.8---------
2019-08-08 08:00:00 21.3 15.4 17.4--- 6935.0--5wx--51009.3 995.6 2.2---------
2019-08-08 07:00:00 19.9 16.3 17.4--- 8035.0--5wx--51008.7 995.0 2.1---------
2019-08-08 06:00:00 18.9 17.6 18.0 24.3 17.5 17 9229.0--5wx--51008.2 994.4 1.8 14.8 15.012----- 7.5
2019-08-08 05:00:00 18.0 17.4 17.6--- 9614.0--5wx---1007.2 993.4 1.1---------
2019-08-08 04:00:00 17.6 17.0 17.2--- 967.0--4wx---1006.7 992.9 0.7---wx-----
2019-08-08 03:00:00 17.9 17.4 17.5--- 978.0--4wx--41006.4 992.6 0.5---wx-----
2019-08-08 02:00:00 18.2 17.7 17.8--- 9710.0--3wx--31006.1 992.3 0.2---------
2019-08-08 01:00:00 18.2 17.7 17.8--- 9715.0--3wx--31006.0 992.2 0.4---wx-----
2019-08-08 00:00:00 18.3 17.8 17.9--- 974.0--2wx-1821005.9 992.1 0.4- 14.06wx-----
2019-08-07 23:00:00 18.4 17.7 17.9--- 967.0--2wx--21005.9 992.1 0.5---wx-----
2019-08-07 22:00:00 18.6 17.9 18.1--- 9613.0--1wx--11005.6 991.8 -0.6---wx-----
2019-08-07 21:00:00 18.7 17.9 18.1--- 9511.0--1wx---1005.5 991.7 1.1---wx-----
2019-08-07 20:00:00 18.8 17.8 18.1--- 9421.0--0----1005.4 991.6 0.1---wx-----
2019-08-07 19:00:00 18.8 17.6 17.9--- 9326.0--1wx---1006.2 992.4 0.7---wx-----
2019-08-07 18:00:00 24.3 16.8 19.3 26.5 18.7- 6335.0--4wx-841004.1 990.6 -1.8- 0.012------
2019-08-07 17:00:00 25.3 16.4 19.5--- 5835.0--3wx--31004.9 991.5 -1.6---------
2019-08-07 16:00:00 26.3 16.5 19.9--- 5535.0--3wx--31005.1 991.7 -1.6---------
2019-08-07 15:00:00 25.8 16.4 19.6--- 5635.0--3wx-831005.8 992.4 -1.7---------
2019-08-07 14:00:00 25.7 16.8 19.8--- 5835.0--2wx---1006.6 993.1 -1.4---------
2019-08-07 13:00:00 25.6 17.5 20.2--- 6135.0--2wx--21006.8 993.3 -1.4---------
2019-08-07 12:00:00 24.7 17.2 19.7--- 6335.0--3wx--31007.6 994.1 -0.7- 0.06------
2019-08-07 11:00:00 23.9 16.7 19.1--- 6435.0--2wx--21008.1 994.5 -0.1---------
2019-08-07 10:00:00 22.7 17.6 19.2--- 7335.0--2wx--21008.3 994.7 0.1---------
2019-08-07 09:00:00 22.0 17.1 18.6--- 7435.0--1wx---1008.4 994.8 0.3---------
2019-08-07 08:00:00 20.1 17.9 18.5--- 8735.0--2wx--21008.3 994.6 0.0---------
2019-08-07 07:00:00 19.4 18.1 18.4--- 9224.0--2wx--21008.4 994.6 0.5---------
2019-08-07 06:00:00 18.7 17.7 18.0 22.5 16.8 16 9420.0--2wx--21008.3 994.5 0.8 4.2 4.012----- 8.3
2019-08-07 05:00:00 17.7 17.1 17.3--- 9610.0--1wx--11008.4 994.6 -0.3---------
2019-08-07 04:00:00 17.0 16.2 16.4--- 955.0--1wx---1008.0 994.1 -0.2---wx-----
2019-08-07 03:00:00 17.3 16.5 16.7--- 9511.0--2wx--21007.6 993.7 -0.5---wx-----
2019-08-07 02:00:00 17.6 16.6 16.9--- 9410.0--2wx--21008.8 994.9 0.7---wx-----
2019-08-07 01:00:00 17.2 16.1 16.4--- 9320.0--2wx--21008.2 994.3 -0.6---------
2019-08-07 00:00:00 17.5 16.4 16.7--- 9321.0--2wx--21008.0 994.2 -0.1- 2.06------
1.6 ms

 

Print Friendly, PDF & Email